Miami, Florida
Traffic Map
Current Weather Conditions
Miami, Florida
Broken Clouds
Broken Clouds
89°
Feels Like: 93°
Wind Chill: 89° Ceiling: 30000
Heat Index: 93° Visibility: 10mi
Dew Point: 68° Wind: 6mph
Humidity: 50% Direction: 280° (W)
Pressure: 29.97in Gusts: 0mph
Raw Report DataKMIA 201653Z 28005KT 10SM SCT050 BKN300 32/20 A2997 RMK AO2 SLP148 T03170200
Traffic Incident Summary
Active as of:
Severity:
Category:
InformationThere was an issue retrieving the traffic information for this location. Please try a different location or try again shortly.
Advertisements